createdAt,value
2019-05-19T00:01:34.806Z,22.40
2019-05-19T00:04:11.043Z,22.40
2019-05-19T00:06:57.543Z,22.40
2019-05-19T00:12:20.888Z,22.40
2019-05-19T00:14:50.122Z,22.40
2019-05-19T00:17:19.480Z,22.40
2019-05-19T00:19:48.831Z,22.40
2019-05-19T00:22:23.969Z,22.30
2019-05-19T00:24:53.242Z,22.40
2019-05-19T00:27:22.454Z,22.40
2019-05-19T00:29:52.790Z,22.40
2019-05-19T00:32:24.041Z,22.40
2019-05-19T00:34:54.458Z,22.40
2019-05-19T00:37:29.388Z,22.40
2019-05-19T00:39:56.612Z,22.30
2019-05-19T00:42:25.841Z,22.40
2019-05-19T00:45:09.173Z,22.30
2019-05-19T00:47:38.367Z,22.40
2019-05-19T00:50:10.485Z,22.30
2019-05-19T00:52:41.167Z,22.30
2019-05-19T00:55:10.386Z,22.30
2019-05-19T00:57:44.260Z,22.30
2019-05-19T01:00:16.443Z,22.30
2019-05-19T01:02:45.639Z,22.40
2019-05-19T01:05:14.636Z,22.30
2019-05-19T01:07:43.920Z,22.30
2019-05-19T01:10:21.618Z,22.30
2019-05-19T01:12:54.109Z,22.30
2019-05-19T01:15:23.569Z,22.30
2019-05-19T01:17:55.008Z,22.30
2019-05-19T01:20:32.125Z,22.30
2019-05-19T01:23:03.367Z,22.30
2019-05-19T01:25:40.145Z,22.30
2019-05-19T01:28:09.516Z,22.30
2019-05-19T01:30:42.533Z,22.30
2019-05-19T01:33:12.409Z,22.30
2019-05-19T01:35:46.133Z,22.30
2019-05-19T01:38:17.650Z,22.30
2019-05-19T01:40:47.003Z,22.30
2019-05-19T01:43:16.926Z,22.30
2019-05-19T01:45:48.739Z,22.30
2019-05-19T01:48:17.768Z,22.30
2019-05-19T01:50:46.897Z,22.30
2019-05-19T01:53:16.167Z,22.20
2019-05-19T01:55:45.507Z,22.20
2019-05-19T01:58:14.670Z,22.30
2019-05-19T02:00:43.989Z,22.30
2019-05-19T02:03:13.294Z,22.30
2019-05-19T02:05:42.356Z,22.20
2019-05-19T02:08:11.792Z,22.30
2019-05-19T02:10:42.733Z,22.20
2019-05-19T02:13:11.966Z,22.20
2019-05-19T02:15:41.403Z,22.20
2019-05-19T02:18:11.150Z,22.20
2019-05-19T02:20:42.658Z,22.20
2019-05-19T02:23:11.960Z,22.20
2019-05-19T02:25:42.490Z,22.20
2019-05-19T02:28:11.621Z,22.20
2019-05-19T02:30:43.850Z,22.20
2019-05-19T02:33:12.943Z,22.20
2019-05-19T02:35:42.389Z,22.20
2019-05-19T02:38:11.869Z,22.20
2019-05-19T02:40:42.672Z,22.20
2019-05-19T02:43:12.239Z,22.20
2019-05-19T02:45:44.507Z,22.20
2019-05-19T02:48:15.387Z,22.20
2019-05-19T02:50:52.449Z,22.20
2019-05-19T02:53:21.761Z,22.20
2019-05-19T02:55:50.923Z,22.20
2019-05-19T02:58:20.485Z,22.20
2019-05-19T03:00:49.888Z,22.20
2019-05-19T03:03:19.309Z,22.20
2019-05-19T03:05:48.691Z,22.20
2019-05-19T03:08:19.041Z,22.20
2019-05-19T03:11:07.409Z,22.20
2019-05-19T03:13:36.610Z,22.20
2019-05-19T03:16:06.167Z,22.10
2019-05-19T03:18:38.795Z,22.20
2019-05-19T03:21:12.142Z,22.10
2019-05-19T03:23:41.599Z,22.20
2019-05-19T03:26:15.441Z,22.10
2019-05-19T03:28:47.057Z,22.20
2019-05-19T03:31:28.644Z,22.10
2019-05-19T03:34:01.225Z,22.10
2019-05-19T03:36:30.524Z,22.00
2019-05-19T03:39:00.749Z,22.10
2019-05-19T03:41:30.111Z,22.10
2019-05-19T03:44:10.740Z,22.10
2019-05-19T03:46:40.594Z,22.10
2019-05-19T03:49:16.212Z,22.10
2019-05-19T03:51:45.615Z,22.10
2019-05-19T03:54:19.484Z,22.10
2019-05-19T03:56:48.888Z,22.10
2019-05-19T03:59:18.188Z,22.10
2019-05-19T04:01:47.485Z,22.10
2019-05-19T04:04:17.710Z,22.10
2019-05-19T04:06:46.907Z,22.10
2019-05-19T04:09:17.704Z,22.10
2019-05-19T04:11:47.263Z,22.10
2019-05-19T04:14:21.403Z,22.10
2019-05-19T04:16:51.923Z,22.10
2019-05-19T04:19:24.098Z,22.10
2019-05-19T04:21:55.122Z,22.10
2019-05-19T04:24:24.779Z,22.10
2019-05-19T04:26:55.618Z,22.10
2019-05-19T04:29:31.398Z,22.10
2019-05-19T04:32:03.909Z,22.10
2019-05-19T04:34:33.091Z,22.10
2019-05-19T04:37:15.638Z,22.10
2019-05-19T04:39:44.979Z,22.10
2019-05-19T04:42:16.537Z,22.10
2019-05-19T04:44:47.884Z,22.10
2019-05-19T04:47:21.076Z,22.00
2019-05-19T04:49:50.413Z,22.00
2019-05-19T04:52:38.910Z,22.00
2019-05-19T04:55:17.036Z,22.00
2019-05-19T04:57:49.100Z,22.00
2019-05-19T05:00:32.738Z,22.00
2019-05-19T05:03:02.856Z,22.10
2019-05-19T05:05:34.765Z,22.00
2019-05-19T05:08:07.581Z,22.10
2019-05-19T05:10:37.126Z,22.00
2019-05-19T05:13:11.239Z,22.10
2019-05-19T05:15:49.311Z,22.10
2019-05-19T05:18:24.407Z,22.00
2019-05-19T05:20:55.146Z,22.00
2019-05-19T05:23:27.507Z,22.00
2019-05-19T05:25:57.279Z,22.00
2019-05-19T05:28:29.471Z,22.00
2019-05-19T05:31:00.999Z,22.00
2019-05-19T05:33:32.248Z,22.00
2019-05-19T05:36:03.448Z,22.00
2019-05-19T05:38:44.877Z,22.00
2019-05-19T05:41:17.120Z,22.00
2019-05-19T05:43:47.719Z,22.00
2019-05-19T05:46:16.652Z,22.00
2019-05-19T05:48:46.882Z,22.00
2019-05-19T05:51:20.495Z,22.00
2019-05-19T05:53:49.773Z,22.00
2019-05-19T05:56:18.990Z,22.00
2019-05-19T05:58:48.233Z,22.10
2019-05-19T06:01:17.648Z,22.10
2019-05-19T06:03:56.140Z,22.10
2019-05-19T06:06:27.488Z,22.10
2019-05-19T06:08:57.013Z,22.10
2019-05-19T06:11:29.655Z,22.10
2019-05-19T06:13:58.863Z,22.10
2019-05-19T06:16:29.146Z,22.10
2019-05-19T06:18:58.352Z,22.20
2019-05-19T06:21:27.282Z,22.20
2019-05-19T06:23:56.545Z,22.20
2019-05-19T06:26:25.587Z,22.20
2019-05-19T06:28:59.741Z,22.20
2019-05-19T06:31:29.322Z,22.20
2019-05-19T06:34:01.987Z,22.20
2019-05-19T06:36:31.441Z,22.30
2019-05-19T06:39:00.869Z,22.30
2019-05-19T06:41:32.468Z,22.30
2019-05-19T06:44:03.416Z,22.30
2019-05-19T06:46:32.963Z,22.40
2019-05-19T06:49:02.023Z,22.40
2019-05-19T06:51:36.845Z,22.50
2019-05-19T06:54:06.128Z,22.50
2019-05-19T06:56:35.718Z,22.60
2019-05-19T06:59:04.971Z,22.60
2019-05-19T07:01:34.404Z,22.60
2019-05-19T07:04:03.604Z,22.70
2019-05-19T07:06:34.371Z,22.70
2019-05-19T07:09:07.709Z,22.70
2019-05-19T07:11:37.241Z,22.80
2019-05-19T07:14:12.547Z,22.70
2019-05-19T07:16:46.826Z,22.70
2019-05-19T07:19:16.016Z,22.80
2019-05-19T07:21:45.478Z,22.80
2019-05-19T07:24:19.697Z,22.80
2019-05-19T07:26:52.747Z,22.80
2019-05-19T07:29:27.077Z,22.80
2019-05-19T07:31:56.215Z,22.80
2019-05-19T07:34:25.568Z,22.80
2019-05-19T07:36:56.614Z,22.80
2019-05-19T07:39:25.852Z,22.80
2019-05-19T07:41:55.347Z,22.80
2019-05-19T07:44:35.668Z,22.80
2019-05-19T07:47:07.083Z,22.80
2019-05-19T07:49:47.891Z,22.80
2019-05-19T07:52:19.078Z,22.80
2019-05-19T07:54:48.178Z,22.80
2019-05-19T07:57:17.712Z,22.80
2019-05-19T07:59:49.647Z,22.70
2019-05-19T08:02:20.574Z,22.70
2019-05-19T08:04:52.846Z,22.70
2019-05-19T08:07:22.328Z,22.70
2019-05-19T08:09:51.810Z,22.70
2019-05-19T08:12:20.949Z,22.70
2019-05-19T08:14:50.127Z,22.70
2019-05-19T08:17:19.345Z,22.70
2019-05-19T08:19:48.615Z,22.70
2019-05-19T08:22:17.880Z,22.70
2019-05-19T08:24:47.006Z,22.70
2019-05-19T08:27:16.649Z,22.70
2019-05-19T08:29:45.908Z,22.70
2019-05-19T08:32:15.249Z,22.70
2019-05-19T08:34:44.372Z,22.80
2019-05-19T08:37:13.401Z,22.80
2019-05-19T08:39:45.416Z,22.70
2019-05-19T08:42:14.896Z,22.80
2019-05-19T08:44:46.109Z,22.70
2019-05-19T08:47:15.315Z,22.70
2019-05-19T08:49:44.710Z,22.80
2019-05-19T08:52:14.114Z,22.80
2019-05-19T08:54:43.457Z,22.80
2019-05-19T08:57:12.555Z,22.80
2019-05-19T08:59:44.471Z,22.70
2019-05-19T09:02:13.791Z,22.70
2019-05-19T09:04:43.620Z,22.80
2019-05-19T09:07:12.823Z,22.80
2019-05-19T09:09:44.537Z,22.70
2019-05-19T09:12:14.042Z,22.70
2019-05-19T09:14:45.651Z,22.70
2019-05-19T09:17:17.558Z,22.70
2019-05-19T09:19:46.652Z,22.70
2019-05-19T09:22:17.112Z,22.70
2019-05-19T09:24:46.617Z,22.70
2019-05-19T09:27:16.244Z,22.70
2019-05-19T09:29:45.749Z,22.60
2019-05-19T09:32:17.578Z,22.70
2019-05-19T09:34:51.317Z,22.70
2019-05-19T09:37:17.997Z,22.60
2019-05-19T09:39:47.282Z,22.60
2019-05-19T09:42:16.902Z,22.60
2019-05-19T09:44:46.137Z,22.60
2019-05-19T09:47:18.063Z,22.60
2019-05-19T09:49:50.536Z,22.60
2019-05-19T09:52:19.591Z,22.60
2019-05-19T09:54:48.729Z,22.60
2019-05-19T09:57:17.820Z,22.60
2019-05-19T09:59:46.882Z,22.60
2019-05-19T10:02:16.215Z,22.60
2019-05-19T10:04:45.452Z,22.60
2019-05-19T10:07:14.951Z,22.60
2019-05-19T10:10:01.249Z,22.60
2019-05-19T10:12:31.067Z,22.60
2019-05-19T10:15:00.423Z,22.60
2019-05-19T10:17:35.664Z,22.60
2019-05-19T10:20:07.804Z,22.60
2019-05-19T10:22:36.837Z,22.60
2019-05-19T10:25:21.082Z,22.60
2019-05-19T10:27:38.457Z,22.60
2019-05-19T10:30:07.780Z,22.50
2019-05-19T10:32:37.069Z,22.60
2019-05-19T10:35:06.413Z,22.60
2019-05-19T10:37:35.716Z,22.60
2019-05-19T10:40:05.585Z,22.60
2019-05-19T10:42:37.000Z,22.60
2019-05-19T10:45:07.257Z,22.60
2019-05-19T10:47:36.426Z,22.60
2019-05-19T10:50:05.921Z,22.60
2019-05-19T10:52:36.039Z,22.70
2019-05-19T10:55:05.872Z,22.70
2019-05-19T10:57:35.193Z,22.80
2019-05-19T11:00:04.903Z,22.80
2019-05-19T11:02:33.939Z,22.80
2019-05-19T11:05:07.280Z,22.90
2019-05-19T11:07:42.634Z,22.90
2019-05-19T11:10:11.782Z,23.00
2019-05-19T11:12:41.112Z,23.00
2019-05-19T11:15:18.155Z,23.10
2019-05-19T11:17:48.189Z,23.10
2019-05-19T11:20:26.620Z,23.20
2019-05-19T11:22:55.655Z,23.20
2019-05-19T11:25:33.450Z,23.30
2019-05-19T11:27:56.426Z,23.30
2019-05-19T11:30:43.552Z,23.40
2019-05-19T11:33:14.702Z,23.40
2019-05-19T11:35:43.898Z,23.50
2019-05-19T11:38:12.852Z,23.50
2019-05-19T11:40:44.408Z,23.60
2019-05-19T11:43:12.777Z,23.60
2019-05-19T11:45:42.937Z,23.60
2019-05-19T11:48:12.076Z,23.60
2019-05-19T11:50:42.354Z,23.70
2019-05-19T11:53:18.267Z,23.80
2019-05-19T11:55:47.983Z,23.80
2019-05-19T11:58:17.426Z,23.80
2019-05-19T12:00:46.973Z,23.90
2019-05-19T12:03:16.600Z,23.90
2019-05-19T12:05:46.396Z,23.90
2019-05-19T12:08:16.094Z,24.00
2019-05-19T12:10:57.466Z,24.00
2019-05-19T12:13:34.796Z,24.00
2019-05-19T12:16:01.917Z,24.00
2019-05-19T12:18:31.527Z,24.10
2019-05-19T12:21:01.407Z,24.10
2019-05-19T12:23:41.356Z,24.10
2019-05-19T12:26:22.641Z,24.10
2019-05-19T12:28:41.858Z,24.10
2019-05-19T12:31:31.601Z,24.20
2019-05-19T12:34:01.201Z,24.10
2019-05-19T12:36:36.565Z,24.20
2019-05-19T12:39:07.421Z,24.20
2019-05-19T12:41:36.932Z,24.20
2019-05-19T12:44:10.499Z,24.20
2019-05-19T12:46:40.280Z,24.20
2019-05-19T12:51:55.951Z,24.20
2019-05-19T12:54:27.875Z,24.10
2019-05-19T12:57:00.262Z,24.10
2019-05-19T12:59:29.787Z,24.20
2019-05-19T13:01:59.177Z,24.10
2019-05-19T13:04:38.527Z,24.10
2019-05-19T13:07:09.655Z,24.10
2019-05-19T13:09:39.132Z,24.10
2019-05-19T13:12:08.638Z,24.10
2019-05-19T13:14:38.236Z,24.10
2019-05-19T13:17:08.214Z,24.00
2019-05-19T13:19:38.286Z,24.00
2019-05-19T13:22:09.463Z,24.10
2019-05-19T13:24:38.971Z,24.00
2019-05-19T13:27:11.551Z,24.00
2019-05-19T13:29:58.031Z,24.00
2019-05-19T13:32:31.323Z,24.00
2019-05-19T13:35:07.965Z,24.00
2019-05-19T13:37:40.876Z,24.00
2019-05-19T13:40:12.359Z,24.00
2019-05-19T13:42:41.707Z,24.00
2019-05-19T13:45:11.020Z,24.00
2019-05-19T13:47:47.729Z,24.00
2019-05-19T13:50:17.286Z,24.00
2019-05-19T13:53:18.998Z,24.00
2019-05-19T13:55:35.859Z,23.90
2019-05-19T13:58:05.280Z,23.90
2019-05-19T14:00:34.918Z,24.00
2019-05-19T14:03:04.319Z,23.90
2019-05-19T14:05:41.166Z,23.90
2019-05-19T14:08:10.672Z,23.90
2019-05-19T14:10:56.023Z,23.90
2019-05-19T14:13:25.584Z,23.90
2019-05-19T14:16:06.048Z,23.90
2019-05-19T14:18:35.800Z,23.90
2019-05-19T14:21:07.869Z,23.90
2019-05-19T14:23:37.534Z,23.90
2019-05-19T14:26:06.431Z,23.90
2019-05-19T14:28:35.278Z,23.90
2019-05-19T14:31:04.054Z,23.90
2019-05-19T14:33:32.852Z,23.90
2019-05-19T14:36:01.641Z,23.80
2019-05-19T14:38:30.536Z,23.90
2019-05-19T14:40:59.420Z,23.80
2019-05-19T14:43:29.340Z,23.80
2019-05-19T14:45:58.258Z,23.80
2019-05-19T14:48:27.361Z,23.80
2019-05-19T14:50:56.225Z,23.80
2019-05-19T14:53:25.081Z,23.80
2019-05-19T14:55:54.102Z,23.70
2019-05-19T14:58:23.026Z,23.70
2019-05-19T15:00:52.129Z,23.70
2019-05-19T15:03:20.992Z,23.70
2019-05-19T15:05:50.203Z,23.70
2019-05-19T15:08:19.285Z,23.70
2019-05-19T15:10:48.238Z,23.70
2019-05-19T15:13:17.932Z,23.70
2019-05-19T15:15:46.867Z,23.70
2019-05-19T15:18:15.753Z,23.70
2019-05-19T15:20:44.698Z,23.70
2019-05-19T15:23:14.181Z,23.70
2019-05-19T15:25:43.167Z,23.70
2019-05-19T15:28:12.012Z,23.70
2019-05-19T15:30:40.887Z,23.70
2019-05-19T15:33:09.771Z,23.70
2019-05-19T15:35:39.605Z,23.60
2019-05-19T15:38:11.211Z,23.60
2019-05-19T15:40:39.685Z,23.60
2019-05-19T15:43:09.352Z,23.60
2019-05-19T15:45:38.655Z,23.60
2019-05-19T15:48:08.404Z,23.60
2019-05-19T15:50:37.895Z,23.60
2019-05-19T15:53:07.126Z,23.60
2019-05-19T15:55:37.006Z,23.60
2019-05-19T15:58:16.226Z,23.60
2019-05-19T16:00:38.752Z,23.70
2019-05-19T16:03:08.374Z,23.70
2019-05-19T16:05:37.930Z,23.70
2019-05-19T16:08:07.264Z,23.70
2019-05-19T16:10:46.153Z,23.70
2019-05-19T16:13:15.324Z,23.70
2019-05-19T16:15:44.669Z,23.70
2019-05-19T16:18:14.018Z,23.80
2019-05-19T16:20:43.764Z,23.80
2019-05-19T16:23:13.063Z,23.80
2019-05-19T16:25:42.569Z,23.80
2019-05-19T16:28:12.012Z,23.80
2019-05-19T16:30:42.708Z,23.80
2019-05-19T16:33:13.643Z,23.90
2019-05-19T16:35:46.979Z,23.90
2019-05-19T16:38:21.491Z,23.90
2019-05-19T16:40:50.760Z,23.90
2019-05-19T16:43:21.085Z,24.00
2019-05-19T16:45:59.069Z,24.00
2019-05-19T16:48:30.154Z,24.00
2019-05-19T16:51:00.557Z,24.00
2019-05-19T16:53:37.674Z,24.00
2019-05-19T16:56:06.761Z,24.10
2019-05-19T16:58:46.890Z,24.00
2019-05-19T17:01:19.913Z,24.00
2019-05-19T17:03:51.020Z,24.00
2019-05-19T17:06:20.382Z,24.00
2019-05-19T17:08:53.308Z,24.00
2019-05-19T17:11:22.867Z,24.00
2019-05-19T17:13:52.270Z,24.00
2019-05-19T17:16:24.383Z,24.00
2019-05-19T17:18:59.317Z,24.00
2019-05-19T17:21:34.454Z,23.90
2019-05-19T17:24:08.660Z,23.90
2019-05-19T17:26:40.626Z,23.90
2019-05-19T17:29:10.235Z,23.90
2019-05-19T17:31:44.934Z,23.80
2019-05-19T17:34:28.706Z,23.80
2019-05-19T17:37:03.842Z,23.80
2019-05-19T17:39:38.931Z,23.80
2019-05-19T17:42:13.609Z,23.80
2019-05-19T17:44:54.366Z,23.80
2019-05-19T17:47:28.285Z,23.70
2019-05-19T17:50:01.373Z,23.70
2019-05-19T17:52:45.496Z,23.70
2019-05-19T17:55:30.458Z,23.70
2019-05-19T17:58:03.264Z,23.70
2019-05-19T18:00:44.115Z,23.70
2019-05-19T18:03:15.698Z,23.70
2019-05-19T18:05:45.314Z,23.70
2019-05-19T18:08:14.924Z,23.70
2019-05-19T18:10:47.088Z,23.70
2019-05-19T18:13:16.631Z,23.60
2019-05-19T18:16:14.268Z,23.60
2019-05-19T18:18:57.887Z,23.60
2019-05-19T18:21:27.293Z,23.60
2019-05-19T18:24:30.276Z,23.60
2019-05-19T18:26:59.652Z,23.60
2019-05-19T18:29:42.895Z,23.60
2019-05-19T18:32:14.407Z,23.60
2019-05-19T18:34:46.602Z,23.60
2019-05-19T18:37:19.410Z,23.60
2019-05-19T18:40:00.084Z,23.60
2019-05-19T18:42:42.792Z,23.60
2019-05-19T18:45:14.346Z,23.60
2019-05-19T18:47:45.446Z,23.60
2019-05-19T18:50:14.741Z,23.60
2019-05-19T18:52:50.877Z,23.60
2019-05-19T18:55:37.073Z,23.50
2019-05-19T18:58:26.569Z,23.50
2019-05-19T19:01:25.137Z,23.50
2019-05-19T19:04:27.075Z,23.50
2019-05-19T19:07:10.772Z,23.50
2019-05-19T19:10:01.658Z,23.50
2019-05-19T19:12:36.063Z,23.50
2019-05-19T19:15:14.189Z,23.50
2019-05-19T19:17:49.793Z,23.50
2019-05-19T19:21:01.293Z,23.50
2019-05-19T19:23:33.505Z,23.50
2019-05-19T19:26:02.995Z,23.50
2019-05-19T19:28:39.819Z,23.50
2019-05-19T19:31:47.809Z,23.50
2019-05-19T19:34:06.784Z,23.50
2019-05-19T19:36:36.230Z,23.50
2019-05-19T19:39:16.639Z,23.40
2019-05-19T19:41:55.572Z,23.40
2019-05-19T19:44:27.699Z,23.40
2019-05-19T19:47:04.796Z,23.40
2019-05-19T19:49:49.148Z,23.40
2019-05-19T19:52:22.014Z,23.40
2019-05-19T19:54:53.230Z,23.40
2019-05-19T19:57:26.044Z,23.40
2019-05-19T20:00:00.547Z,23.40
2019-05-19T20:02:38.934Z,23.40
2019-05-19T20:05:15.103Z,23.40
2019-05-19T20:07:44.413Z,23.40
2019-05-19T20:10:14.012Z,23.30
2019-05-19T20:12:43.163Z,23.30
2019-05-19T20:15:18.407Z,23.30
2019-05-19T20:17:49.347Z,23.30
2019-05-19T20:20:18.482Z,23.40
2019-05-19T20:22:47.709Z,23.30
2019-05-19T20:25:21.898Z,23.30
2019-05-19T20:27:52.640Z,23.30
2019-05-19T20:30:35.173Z,23.30
2019-05-19T20:32:56.654Z,23.30
2019-05-19T20:35:25.914Z,23.30
2019-05-19T20:37:55.026Z,23.30
2019-05-19T20:40:28.977Z,23.30
2019-05-19T20:43:04.801Z,23.30
2019-05-19T20:45:50.093Z,23.30
2019-05-19T20:48:19.416Z,23.30
2019-05-19T20:50:56.783Z,23.30
2019-05-19T20:53:31.449Z,23.30
2019-05-19T20:56:06.162Z,23.30
2019-05-19T20:58:37.543Z,23.30
2019-05-19T21:01:08.676Z,23.30
2019-05-19T21:03:38.440Z,23.20
2019-05-19T21:06:12.213Z,23.20
2019-05-19T21:08:43.390Z,23.20
2019-05-19T21:11:12.789Z,23.20
2019-05-19T21:13:57.169Z,23.20
2019-05-19T21:16:39.801Z,23.20
2019-05-19T21:19:24.400Z,23.30
2019-05-19T21:24:47.897Z,23.20
2019-05-19T21:27:23.341Z,23.20
2019-05-19T21:29:55.066Z,23.20
2019-05-19T21:32:26.971Z,23.20
2019-05-19T21:34:58.257Z,23.20
2019-05-19T21:37:35.143Z,23.20
2019-05-19T21:40:05.822Z,23.20
2019-05-19T21:42:37.061Z,23.20
2019-05-19T21:45:24.176Z,23.20
2019-05-19T21:47:55.080Z,23.20
2019-05-19T21:50:26.309Z,23.20
2019-05-19T21:52:59.768Z,23.10
2019-05-19T21:55:32.566Z,23.20
2019-05-19T21:58:07.433Z,23.20
2019-05-19T22:00:42.255Z,23.10
2019-05-19T22:03:16.833Z,23.10
2019-05-19T22:05:53.290Z,23.10
2019-05-19T22:08:23.772Z,23.10
2019-05-19T22:10:53.235Z,23.10
2019-05-19T22:13:24.381Z,23.10
2019-05-19T22:15:53.960Z,23.10
2019-05-19T22:18:23.214Z,23.00
2019-05-19T22:20:58.918Z,23.10
2019-05-19T22:23:31.280Z,23.00
2019-05-19T22:26:00.820Z,23.10
2019-05-19T22:28:37.566Z,23.10
2019-05-19T22:31:06.683Z,23.10
2019-05-19T22:33:37.822Z,23.00
2019-05-19T22:36:08.799Z,23.00
2019-05-19T22:38:38.105Z,23.00
2019-05-19T22:41:07.581Z,23.00
2019-05-19T22:43:37.116Z,23.00
2019-05-19T22:46:10.476Z,23.00
2019-05-19T22:48:45.846Z,23.00
2019-05-19T22:51:15.554Z,23.00
2019-05-19T22:53:53.223Z,23.00
2019-05-19T22:56:20.036Z,23.00
2019-05-19T22:58:53.937Z,23.00
2019-05-19T23:01:28.911Z,23.00
2019-05-19T23:03:58.516Z,23.00
2019-05-19T23:06:34.575Z,23.00
2019-05-19T23:09:07.325Z,23.00
2019-05-19T23:11:37.009Z,22.90
2019-05-19T23:14:09.406Z,22.90
2019-05-19T23:16:39.442Z,22.90
2019-05-19T23:19:14.205Z,22.90
2019-05-19T23:21:46.010Z,22.90
2019-05-19T23:24:15.243Z,22.90
2019-05-19T23:26:47.408Z,22.90
2019-05-19T23:29:17.131Z,22.90
2019-05-19T23:32:06.276Z,22.90
2019-05-19T23:34:26.938Z,22.90
2019-05-19T23:37:03.964Z,22.90
2019-05-19T23:39:35.360Z,22.90
2019-05-19T23:42:08.006Z,22.80
2019-05-19T23:44:38.971Z,22.80
2019-05-19T23:47:16.291Z,22.90
2019-05-19T23:50:55.239Z,22.80
2019-05-19T23:53:36.009Z,22.80
2019-05-19T23:56:11.098Z,22.80
2019-05-19T23:58:44.405Z,22.80
